Time;durP1;ratioP1;P1;durP2;ratioP2;P2;SDS_P1;SDS_P2;PMS_P1;PMS_P2;Temp;Humidity;BMP_temperature;BMP_pressure;BME280_temperature;BME280_humidity;BME280_pressure;Samples;Min_cycle;Max_cycle;Signal;HPM_P1;HPM_P2
2022/07/01 03:02:18;;;;;;;0.70;0.60;;;17.20;81.50;;;;;;6283298;22;20505;-72
2022/07/01 03:04:47;;;;;;;0.80;0.60;;;17.40;81.40;;;;;;6309010;22;20411;-71
2022/07/01 03:07:14;;;;;;;0.70;0.50;;;17.40;80.40;;;;;;6308978;22;20401;-72
2022/07/01 03:09:40;;;;;;;0.70;0.50;;;17.40;80.60;;;;;;6308976;22;20404;-71
2022/07/01 03:14:48;;;;;;;0.70;0.57;;;17.40;80.80;;;;;;6278875;22;20451;-72
2022/07/01 03:17:15;;;;;;;0.80;0.60;;;17.40;81.00;;;;;;6277804;22;20405;-72
2022/07/01 03:19:43;;;;;;;0.70;0.50;;;17.40;81.30;;;;;;6277844;22;20431;-72
2022/07/01 03:22:10;;;;;;;0.70;0.60;;;17.20;81.30;;;;;;6277786;22;20421;-71
2022/07/01 03:24:36;;;;;;;0.70;0.50;;;17.20;80.80;;;;;;6277801;22;20402;-71
2022/07/01 03:27:04;;;;;;;0.70;0.50;;;17.10;80.80;;;;;;6277828;22;20397;-72
2022/07/01 03:29:30;;;;;;;0.70;0.60;;;17.30;81.00;;;;;;6277767;22;20405;-72
2022/07/01 03:31:57;;;;;;;0.70;0.60;;;17.30;81.10;;;;;;6277835;22;20504;-72
2022/07/01 03:34:24;;;;;;;0.70;0.60;;;17.30;81.30;;;;;;6277617;22;20444;-72
2022/07/01 03:36:52;;;;;;;0.70;0.50;;;17.20;80.70;;;;;;6277767;22;20405;-72
2022/07/01 03:39:18;;;;;;;0.70;0.57;;;17.10;80.70;;;;;;6277651;22;20401;-72
2022/07/01 03:41:45;;;;;;;0.70;0.60;;;17.10;81.00;;;;;;6277595;22;20429;-71
2022/07/01 03:44:12;;;;;;;0.70;0.70;;;17.00;81.50;;;;;;6277640;22;20401;-72
2022/07/01 03:46:38;;;;;;;0.70;0.50;;;17.00;81.10;;;;;;6277623;22;20401;-72
2022/07/01 03:49:05;;;;;;;0.70;0.57;;;17.10;81.20;;;;;;6277673;22;20401;-71
2022/07/01 03:51:32;;;;;;;0.90;0.60;;;17.20;80.70;;;;;;6277440;22;20459;-72
2022/07/01 03:56:44;;;;;;;1.00;0.60;;;17.40;80.20;;;;;;6277363;22;20735;-72
2022/07/01 03:59:10;;;;;;;0.70;0.60;;;17.40;81.10;;;;;;6277491;22;20409;-72
2022/07/01 04:01:37;;;;;;;0.70;0.50;;;17.40;80.30;;;;;;6276863;22;20752;-71
2022/07/01 04:04:04;;;;;;;0.80;0.60;;;17.30;80.40;;;;;;6277125;22;20944;-71
2022/07/01 04:06:31;;;;;;;1.13;1.03;;;17.20;80.40;;;;;;6277427;22;20412;-72
2022/07/01 04:08:58;;;;;;;0.70;0.50;;;17.20;80.60;;;;;;6277360;22;20402;-72
2022/07/01 04:11:26;;;;;;;0.70;0.60;;;17.20;80.10;;;;;;6277356;22;20804;-72
2022/07/01 04:13:53;;;;;;;0.70;0.50;;;17.20;80.70;;;;;;6276871;22;20441;-72
2022/07/01 04:16:20;;;;;;;0.80;0.50;;;17.30;80.70;;;;;;6277266;22;20405;-72
2022/07/01 04:18:47;;;;;;;0.90;0.60;;;17.40;80.00;;;;;;6277284;22;20470;-71
2022/07/01 04:23:58;;;;;;;0.70;0.50;;;17.30;80.10;;;;;;6277044;22;20364;-71
2022/07/01 04:26:27;;;;;;;1.53;0.50;;;17.20;80.30;;;;;;6277215;22;20459;-72
2022/07/01 04:28:54;;;;;;;0.70;0.50;;;17.20;80.70;;;;;;6277191;22;20412;-72
2022/07/01 04:31:21;;;;;;;0.70;0.50;;;17.30;80.20;;;;;;6277083;22;20500;-71
2022/07/01 04:33:48;;;;;;;1.27;0.50;;;17.30;81.10;;;;;;6277009;22;20490;-72
2022/07/01 04:36:15;;;;;;;0.70;0.50;;;17.40;80.60;;;;;;6277187;22;20456;-72
2022/07/01 04:38:41;;;;;;;0.70;0.60;;;17.40;80.80;;;;;;6277140;22;20401;-72
2022/07/01 04:44:02;;;;;;;0.70;0.60;;;17.50;80.50;;;;;;6222363;22;20396;-72
2022/07/01 04:46:29;;;;;;;0.70;0.60;;;17.60;80.40;;;;;;6277037;22;20451;-72
2022/07/01 04:48:56;;;;;;;0.70;0.50;;;17.60;80.50;;;;;;6277008;22;20405;-72
2022/07/01 04:51:22;;;;;;;0.70;0.60;;;17.70;80.20;;;;;;6276935;22;20486;-71
2022/07/01 04:53:49;;;;;;;0.90;0.70;;;17.70;80.10;;;;;;6276927;22;20436;-71
2022/07/01 04:56:17;;;;;;;0.77;0.63;;;17.70;80.40;;;;;;6277044;22;20413;-72
2022/07/01 04:58:43;;;;;;;0.70;0.60;;;17.70;80.00;;;;;;6277004;22;20402;-72
2022/07/01 05:01:11;;;;;;;0.70;0.60;;;17.80;80.00;;;;;;6276683;22;20433;-69
2022/07/01 05:03:38;;;;;;;0.70;0.60;;;17.90;80.10;;;;;;6276967;22;20413;-70
2022/07/01 05:06:05;;;;;;;1.20;0.60;;;17.90;80.40;;;;;;6276635;22;20435;-70
2022/07/01 05:08:32;;;;;;;0.70;0.50;;;18.00;79.80;;;;;;6276448;22;20905;-70
2022/07/01 05:10:59;;;;;;;0.70;0.60;;;17.90;79.80;;;;;;6276809;22;20487;-70
2022/07/01 05:13:26;;;;;;;0.80;0.60;;;17.90;80.00;;;;;;6276807;22;20491;-70
2022/07/01 05:15:52;;;;;;;0.83;0.80;;;17.90;79.90;;;;;;6276844;22;20463;-69
2022/07/01 05:23:48;;;;;;;0.80;0.60;;;18.00;79.90;;;;;;6276821;22;20448;-69
2022/07/01 05:26:17;;;;;;;0.70;0.60;;;18.00;79.70;;;;;;6276732;22;20397;-69
2022/07/01 05:28:43;;;;;;;0.70;0.60;;;18.10;79.60;;;;;;6276766;22;20412;-70
2022/07/01 05:31:10;;;;;;;0.70;0.50;;;18.10;79.50;;;;;;6276654;22;20478;-69
2022/07/01 05:33:38;;;;;;;0.70;0.60;;;18.00;79.60;;;;;;6276577;22;20467;-70
2022/07/01 05:36:05;;;;;;;0.70;0.60;;;18.10;79.50;;;;;;6276761;22;20451;-70
2022/07/01 05:38:32;;;;;;;0.80;0.60;;;18.20;79.70;;;;;;6276651;22;20467;-69
2022/07/01 05:40:59;;;;;;;0.70;0.50;;;18.20;79.30;;;;;;6276618;22;20421;-69
2022/07/01 05:43:25;;;;;;;0.70;0.60;;;18.10;79.30;;;;;;6276398;22;20944;-71
2022/07/01 05:45:52;;;;;;;1.13;0.70;;;18.10;79.50;;;;;;6276665;22;20401;-70
2022/07/01 05:48:19;;;;;;;0.80;0.60;;;18.20;79.40;;;;;;6276316;22;20886;-70
2022/07/01 05:50:47;;;;;;;2.03;0.60;;;18.20;79.50;;;;;;6276073;22;20933;-69
2022/07/01 05:53:14;;;;;;;0.70;0.57;;;18.20;79.00;;;;;;6276561;22;20516;-68
2022/07/01 05:55:41;;;;;;;0.87;0.67;;;18.00;79.10;;;;;;6276662;22;20409;-69
2022/07/01 05:58:09;;;;;;;0.70;0.60;;;18.10;79.20;;;;;;6276615;22;20459;-69
2022/07/01 06:00:36;;;;;;;0.70;0.50;;;18.00;79.40;;;;;;6276293;22;20409;-70
2022/07/01 06:03:03;;;;;;;0.70;0.60;;;18.10;79.40;;;;;;6276607;22;20401;-69
2022/07/01 06:05:30;;;;;;;0.70;0.60;;;18.10;79.60;;;;;;6276617;22;20409;-68
2022/07/01 06:07:58;;;;;;;0.80;0.70;;;18.10;79.80;;;;;;6276138;22;20397;-68
2022/07/01 06:10:25;;;;;;;0.73;0.50;;;18.10;80.00;;;;;;6276456;22;20433;-69
2022/07/01 06:12:52;;;;;;;0.70;0.70;;;18.10;79.80;;;;;;6276143;22;20765;-70
2022/07/01 06:15:18;;;;;;;0.70;0.57;;;18.00;79.90;;;;;;6276448;22;20436;-69
2022/07/01 06:17:45;;;;;;;0.80;0.60;;;18.10;79.60;;;;;;6277792;22;20401;-70
2022/07/01 06:20:12;;;;;;;0.70;0.50;;;18.10;79.90;;;;;;6278535;22;20454;-71
2022/07/01 06:22:39;;;;;;;0.80;0.60;;;18.00;79.40;;;;;;6278317;22;20417;-69
2022/07/01 06:25:08;;;;;;;0.80;0.60;;;18.00;79.10;;;;;;6278320;22;20401;-69
2022/07/01 06:27:39;;;;;;;0.70;0.50;;;18.00;79.70;;;;;;6278399;22;20436;-70
2022/07/01 06:30:06;;;;;;;0.70;0.50;;;18.10;79.60;;;;;;6278444;22;20385;-70
2022/07/01 06:32:33;;;;;;;0.70;0.50;;;18.00;79.40;;;;;;6277808;22;20929;-70
2022/07/01 06:34:59;;;;;;;0.70;0.60;;;18.10;79.50;;;;;;6278223;22;20751;-70
2022/07/01 06:37:26;;;;;;;0.70;0.60;;;18.20;79.70;;;;;;6278277;22;20424;-69
2022/07/01 06:39:53;;;;;;;0.97;0.60;;;18.20;79.70;;;;;;6278134;22;20409;-70
2022/07/01 06:42:23;;;;;;;0.70;0.60;;;18.10;79.10;;;;;;6278098;22;20425;-71
2022/07/01 06:44:49;;;;;;;0.70;0.50;;;18.10;79.20;;;;;;6278136;22;20766;-70
2022/07/01 06:47:16;;;;;;;0.70;0.60;;;18.00;79.30;;;;;;6278192;22;20783;-71
2022/07/01 06:49:42;;;;;;;0.70;0.60;;;18.00;79.60;;;;;;6278113;22;20474;-70
2022/07/01 06:52:09;;;;;;;0.70;0.60;;;18.00;79.90;;;;;;6278078;22;20424;-70
2022/07/01 06:54:37;;;;;;;0.70;0.60;;;18.00;80.00;;;;;;6277926;22;20437;-70
2022/07/01 06:57:04;;;;;;;0.70;0.50;;;18.00;79.60;;;;;;6277767;22;20406;-71
2022/07/01 06:59:32;;;;;;;0.70;0.50;;;18.00;79.60;;;;;;6278104;22;20440;-71
2022/07/01 07:01:59;;;;;;;0.70;0.70;;;18.10;79.40;;;;;;6277837;22;20437;-70
2022/07/01 07:04:26;;;;;;;0.70;0.60;;;18.10;79.50;;;;;;6278198;22;20406;-71
2022/07/01 07:06:53;;;;;;;0.70;0.60;;;18.20;79.80;;;;;;6277959;22;20405;-71
2022/07/01 07:09:19;;;;;;;0.80;0.60;;;18.30;79.90;;;;;;6277961;22;20421;-71
2022/07/01 07:11:46;;;;;;;0.70;0.60;;;18.20;78.90;;;;;;6277795;22;20421;-70
2022/07/01 07:14:13;;;;;;;0.70;0.50;;;18.30;79.20;;;;;;6277861;22;20445;-71
2022/07/01 07:16:41;;;;;;;0.70;0.60;;;18.30;79.30;;;;;;6277305;22;20737;-71
2022/07/01 07:19:07;;;;;;;1.73;0.60;;;18.30;79.10;;;;;;6277807;22;20401;-70
2022/07/01 07:21:34;;;;;;;0.70;0.60;;;18.40;79.30;;;;;;6277703;22;20433;-70
2022/07/01 07:24:01;;;;;;;0.83;0.70;;;18.40;79.30;;;;;;6277869;22;20447;-70
2022/07/01 07:26:27;;;;;;;0.70;0.50;;;18.40;78.70;;;;;;6277750;22;20777;-70
2022/07/01 07:28:54;;;;;;;0.80;0.80;;;18.40;79.10;;;;;;6277455;22;20786;-71
2022/07/01 07:31:21;;;;;;;0.70;0.50;;;18.50;79.00;;;;;;6277282;22;20937;-70
2022/07/01 07:33:49;;;;;;;0.70;0.60;;;18.50;78.40;;;;;;6277558;22;20433;-70
2022/07/01 07:36:15;;;;;;;0.80;0.60;;;18.50;78.60;;;;;;6277644;22;20405;-71
2022/07/01 07:38:42;;;;;;;0.70;0.60;;;18.30;78.60;;;;;;6277595;22;20402;-70
2022/07/01 07:41:08;;;;;;;0.70;0.50;;;18.10;80.10;;;;;;6277124;22;21011;-70
2022/07/01 07:43:35;;;;;;;1.00;0.57;;;18.20;80.10;;;;;;6277198;22;20789;-71
2022/07/01 07:46:04;;;;;;;0.70;0.50;;;18.30;79.60;;;;;;6277684;22;20432;-71
2022/07/01 07:48:30;;;;;;;0.70;0.60;;;18.30;79.20;;;;;;6277175;22;20835;-70
2022/07/01 07:50:58;;;;;;;0.70;0.50;;;18.30;79.10;;;;;;6277417;22;20421;-71
2022/07/01 07:53:25;;;;;;;0.70;0.50;;;18.40;79.70;;;;;;6277453;22;20712;-70
2022/07/01 07:55:52;;;;;;;0.70;0.50;;;18.30;78.60;;;;;;6276867;22;20961;-71
2022/07/01 07:58:18;;;;;;;0.70;0.50;;;18.40;79.50;;;;;;6277403;22;20409;-70
2022/07/01 08:00:45;;;;;;;0.70;0.50;;;18.40;79.00;;;;;;6276826;22;20809;-70
2022/07/01 08:03:12;;;;;;;0.70;0.50;;;18.50;78.50;;;;;;6277463;22;20397;-70
2022/07/01 08:05:38;;;;;;;0.70;0.50;;;18.40;76.90;;;;;;6277467;22;20401;-71
2022/07/01 08:08:06;;;;;;;0.70;0.50;;;18.30;77.10;;;;;;6277324;22;20409;-70
2022/07/01 08:10:33;;;;;;;0.70;0.50;;;18.30;77.80;;;;;;6276871;22;20393;-70
2022/07/01 08:13:04;;;;;;;0.70;0.50;;;18.30;78.20;;;;;;6277226;22;20431;-72
2022/07/01 08:15:31;;;;;;;0.70;0.50;;;18.20;77.90;;;;;;6277332;22;20436;-71
2022/07/01 08:17:57;;;;;;;0.70;0.60;;;18.20;78.00;;;;;;6277246;22;20466;-70
2022/07/01 08:20:24;;;;;;;0.70;0.50;;;18.20;78.40;;;;;;6276727;22;20416;-70
2022/07/01 08:22:51;;;;;;;0.70;0.53;;;18.20;77.90;;;;;;6277265;22;20402;-71
2022/07/01 08:25:19;;;;;;;0.70;0.50;;;18.20;78.00;;;;;;6277167;22;20401;-71
2022/07/01 08:27:46;;;;;;;0.70;0.50;;;18.20;78.30;;;;;;6276999;22;20402;-70
2022/07/01 08:30:13;;;;;;;0.70;0.60;;;18.20;78.70;;;;;;6277119;22;20401;-71
2022/07/01 08:32:39;;;;;;;0.70;0.50;;;18.30;79.00;;;;;;6276980;22;20429;-70
2022/07/01 08:35:06;;;;;;;0.70;0.50;;;18.40;79.40;;;;;;6277097;22;20471;-71
2022/07/01 08:37:33;;;;;;;0.70;0.50;;;18.30;78.20;;;;;;6277182;22;20413;-71
2022/07/01 08:40:00;;;;;;;0.70;0.50;;;18.40;78.40;;;;;;6276747;22;20397;-71
2022/07/01 08:42:28;;;;;;;0.70;0.50;;;18.20;78.70;;;;;;6276904;22;20428;-71
2022/07/01 08:44:54;;;;;;;0.70;0.50;;;18.20;79.20;;;;;;6277047;22;20402;-71
2022/07/01 08:47:21;;;;;;;0.70;0.50;;;18.30;78.90;;;;;;6277027;22;20401;-71
2022/07/01 08:49:48;;;;;;;0.80;0.50;;;18.30;79.60;;;;;;6276594;22;20955;-71
2022/07/01 08:52:15;;;;;;;0.70;0.50;;;18.30;79.30;;;;;;6276935;22;20421;-70
2022/07/01 08:54:42;;;;;;;0.67;0.50;;;18.30;79.50;;;;;;6276389;22;20949;-71
2022/07/01 08:57:09;;;;;;;0.70;0.50;;;18.30;78.90;;;;;;6276918;22;20401;-71
2022/07/01 08:59:37;;;;;;;0.70;0.50;;;18.20;79.30;;;;;;6276869;22;20451;-70
2022/07/01 09:02:05;;;;;;;0.70;0.50;;;18.30;79.60;;;;;;6276358;22;20445;-70
2022/07/01 09:04:33;;;;;;;0.70;0.50;;;18.30;79.80;;;;;;6276764;22;20450;-70
2022/07/01 09:07:04;;;;;;;0.70;0.50;;;18.30;79.70;;;;;;6276467;22;20842;-71
2022/07/01 09:09:35;;;;;;;0.70;0.50;;;18.30;79.80;;;;;;6277144;22;20420;-70
2022/07/01 09:12:02;;;;;;;0.70;0.50;;;18.20;78.40;;;;;;6276960;22;20444;-72
2022/07/01 09:14:31;;;;;;;0.70;0.50;;;18.10;78.90;;;;;;6278147;22;20824;-72
2022/07/01 09:17:00;;;;;;;0.70;0.50;;;18.10;78.60;;;;;;6277258;22;20463;-71
2022/07/01 09:19:29;;;;;;;0.80;0.50;;;18.10;78.60;;;;;;6276915;22;20504;-71
2022/07/01 09:21:57;;;;;;;0.80;0.50;;;18.10;78.50;;;;;;6276723;22;20429;-71
2022/07/01 09:24:27;;;;;;;1.17;0.60;;;18.00;79.10;;;;;;6276867;22;20770;-71
2022/07/01 09:26:55;;;;;;;0.70;0.60;;;18.10;79.50;;;;;;6276408;22;20405;-71
2022/07/01 09:29:26;;;;;;;0.70;0.53;;;18.10;79.80;;;;;;6276846;22;20464;-72
2022/07/01 09:31:53;;;;;;;0.70;0.50;;;18.10;80.10;;;;;;6276750;22;20457;-71
2022/07/01 09:34:22;;;;;;;0.80;0.60;;;18.10;79.50;;;;;;6276647;22;20441;-72
2022/07/01 09:36:54;;;;;;;0.80;0.60;;;18.10;79.50;;;;;;6276620;22;20409;-71
2022/07/01 09:39:21;;;;;;;0.70;0.60;;;18.20;79.40;;;;;;6276370;22;20386;-71
2022/07/01 09:41:48;;;;;;;0.70;0.50;;;18.20;79.60;;;;;;6276465;22;20429;-71
2022/07/01 09:44:14;;;;;;;0.70;0.50;;;18.10;79.40;;;;;;6276716;22;20408;-71
2022/07/01 09:46:53;;;;;;;0.70;0.50;;;18.10;79.30;;;;;;6276542;22;20424;-71
2022/07/01 09:49:21;;;;;;;0.70;0.50;;;17.90;79.50;;;;;;6276619;22;20423;-71
2022/07/01 09:51:50;;;;;;;0.70;0.57;;;17.90;79.60;;;;;;6276682;22;20455;-71
2022/07/01 09:54:17;;;;;;;0.70;0.50;;;18.00;79.90;;;;;;6278596;22;20405;-71
2022/07/01 09:56:44;;;;;;;0.70;0.50;;;18.00;80.60;;;;;;6278543;22;20401;-71
2022/07/01 09:59:11;;;;;;;0.70;0.50;;;18.10;80.30;;;;;;6278512;22;20409;-71
2022/07/01 10:01:39;;;;;;;0.70;0.50;;;18.10;79.80;;;;;;6278143;22;20487;-71
2022/07/01 10:04:08;;;;;;;0.70;0.60;;;18.20;79.90;;;;;;6278886;22;20398;-71
2022/07/01 10:07:10;;;;;;;0.70;0.60;;;18.30;79.80;;;;;;6278564;22;20405;-71
2022/07/01 10:09:53;;;;;;;0.70;0.50;;;18.30;78.40;;;;;;6278589;22;20385;-71
2022/07/01 10:12:33;;;;;;;0.70;0.50;;;18.30;79.60;;;;;;6278429;22;20429;-71
2022/07/01 10:15:01;;;;;;;0.67;0.50;;;18.50;79.40;;;;;;6278392;22;20432;-71
2022/07/01 10:17:30;;;;;;;0.70;0.50;;;18.60;79.40;;;;;;6278339;22;20410;-71
2022/07/01 10:19:57;;;;;;;0.70;0.60;;;18.70;78.60;;;;;;6278455;22;20401;-71
2022/07/01 10:22:30;;;;;;;0.80;0.60;;;18.80;78.20;;;;;;6277882;22;20437;-71
2022/07/01 10:25:17;;;;;;;0.73;0.57;;;19.00;78.40;;;;;;6278348;22;20393;-71
2022/07/01 10:27:44;;;;;;;0.70;0.50;;;19.10;77.10;;;;;;6277877;22;20416;-71
2022/07/01 10:30:15;;;;;;;0.70;0.50;;;19.20;77.00;;;;;;6278480;22;20409;-71
2022/07/01 10:32:49;;;;;;;0.70;0.50;;;19.10;75.00;;;;;;6278222;22;20429;-70
2022/07/01 10:35:16;;;;;;;0.70;0.50;;;19.00;75.30;;;;;;6278305;22;20425;-71
2022/07/01 10:40:46;;;;;;;0.70;0.60;;;18.90;76.10;;;;;;5091456;28;20523;-72
2022/07/01 10:43:17;;;;;;;0.70;0.50;;;18.80;77.80;;;;;;5090661;28;20451;-73
2022/07/01 10:45:43;;;;;;;0.70;0.50;;;19.00;78.20;;;;;;5091026;28;20516;-72
2022/07/01 10:48:21;;;;;;;0.90;0.60;;;19.10;77.20;;;;;;5090830;28;20453;-72
2022/07/01 10:50:48;;;;;;;0.70;0.50;;;19.20;77.30;;;;;;5090752;28;20467;-73
2022/07/01 10:53:15;;;;;;;0.70;0.50;;;19.30;78.20;;;;;;5090530;28;20874;-72
2022/07/01 10:55:48;;;;;;;0.70;0.50;;;19.50;78.20;;;;;;5090712;28;20448;-72
2022/07/01 10:58:18;;;;;;;0.70;0.50;;;19.30;77.70;;;;;;5090703;28;20421;-72
2022/07/01 11:00:46;;;;;;;0.70;0.50;;;19.30;73.70;;;;;;5090474;28;20476;-72
2022/07/01 11:03:21;;;;;;;0.67;0.50;;;19.50;74.00;;;;;;5090639;28;20445;-73
2022/07/01 11:05:51;;;;;;;0.80;0.60;;;19.80;74.70;;;;;;5090542;28;20435;-73
2022/07/01 11:08:18;;;;;;;0.70;0.60;;;20.10;74.10;;;;;;5090416;28;20449;-72
2022/07/01 11:10:50;;;;;;;0.80;0.50;;;20.20;74.50;;;;;;5090381;28;20464;-73
2022/07/01 11:13:17;;;;;;;0.70;0.60;;;20.30;72.70;;;;;;5090414;28;20455;-73
2022/07/01 11:15:46;;;;;;;0.67;0.50;;;20.20;72.00;;;;;;5090048;28;20498;-73
2022/07/01 11:18:15;;;;;;;0.70;0.50;;;20.20;72.70;;;;;;5090264;28;20528;-73
2022/07/01 11:20:41;;;;;;;0.70;0.50;;;20.30;73.40;;;;;;5090143;28;20476;-72
2022/07/01 11:23:08;;;;;;;0.60;0.50;;;20.40;72.80;;;;;;5090185;28;20441;-72
2022/07/01 11:25:35;;;;;;;0.60;0.50;;;20.40;71.60;;;;;;5090168;28;20474;-73
2022/07/01 11:28:03;;;;;;;0.70;0.50;;;20.50;72.10;;;;;;5090161;28;20514;-73
2022/07/01 11:30:30;;;;;;;0.70;0.50;;;20.60;72.00;;;;;;5089968;28;20494;-73
2022/07/01 11:32:59;;;;;;;0.70;0.50;;;20.60;70.40;;;;;;5089714;28;20445;-73
2022/07/01 11:41:01;;;;;;;0.67;0.50;;;20.40;71.10;;;;;;5089736;28;20444;-73
2022/07/01 11:43:31;;;;;;;0.83;0.60;;;20.30;71.30;;;;;;5089683;28;20855;-74
2022/07/01 11:46:00;;;;;;;0.70;0.50;;;20.10;72.20;;;;;;5089829;28;20441;-73
2022/07/01 11:48:31;;;;;;;0.90;0.60;;;20.20;73.40;;;;;;5089817;28;20441;-74
2022/07/01 11:50:58;;;;;;;0.70;0.50;;;20.10;72.60;;;;;;5081646;28;20465;-73
2022/07/01 11:53:25;;;;;;;0.70;0.50;;;20.10;73.20;;;;;;5076269;28;20490;-73
2022/07/01 11:55:52;;;;;;;0.70;0.50;;;20.10;70.50;;;;;;5075751;28;20941;-73
2022/07/01 11:58:19;;;;;;;0.70;0.50;;;20.00;71.80;;;;;;5076261;28;20445;-73
2022/07/01 12:00:47;;;;;;;0.70;0.50;;;20.00;72.40;;;;;;5076002;28;20511;-73
2022/07/01 12:03:14;;;;;;;0.70;0.50;;;20.10;72.90;;;;;;5076041;28;20449;-73
2022/07/01 12:05:40;;;;;;;0.70;0.50;;;20.10;71.30;;;;;;5075570;28;20857;-73
2022/07/01 12:08:07;;;;;;;0.67;0.50;;;20.10;72.70;;;;;;5075782;28;20945;-73
2022/07/01 12:10:34;;;;;;;0.70;0.50;;;19.90;71.20;;;;;;5076488;28;20452;-73
2022/07/01 12:13:01;;;;;;;0.70;0.57;;;20.00;69.70;;;;;;5075856;28;20495;-73
2022/07/01 12:15:28;;;;;;;0.70;0.50;;;20.10;71.90;;;;;;5075445;28;20468;-73
2022/07/01 12:18:07;;;;;;;0.87;0.53;;;20.40;70.70;;;;;;5075761;28;20457;-72
2022/07/01 12:20:34;;;;;;;0.70;0.60;;;20.70;70.80;;;;;;5075451;28;20878;-73
2022/07/01 12:23:12;;;;;;;0.70;0.50;;;20.70;68.70;;;;;;5075419;28;21023;-73
2022/07/01 12:25:39;;;;;;;0.60;0.50;;;20.90;65.10;;;;;;5076009;28;20487;-73
2022/07/01 12:28:05;;;;;;;0.70;0.50;;;20.80;67.10;;;;;;5075648;28;20819;-73
2022/07/01 12:30:33;;;;;;;0.70;0.50;;;20.90;69.20;;;;;;5075662;28;20471;-72
2022/07/01 12:33:09;;;;;;;0.70;0.50;;;21.10;69.50;;;;;;5075239;28;20894;-72
2022/07/01 12:35:42;;;;;;;0.70;0.50;;;21.30;70.60;;;;;;5075608;28;20516;-73
2022/07/01 12:38:16;;;;;;;0.70;0.60;;;21.20;68.30;;;;;;5075013;28;20449;-73
2022/07/01 12:40:43;;;;;;;0.70;0.50;;;21.20;65.80;;;;;;5075303;28;20488;-73
2022/07/01 12:43:24;;;;;;;0.70;0.60;;;21.30;66.60;;;;;;5075280;28;20495;-73
2022/07/01 12:45:50;;;;;;;0.70;0.60;;;21.10;68.30;;;;;;5075309;28;20437;-73
2022/07/01 12:48:18;;;;;;;0.70;0.50;;;21.10;68.10;;;;;;5075214;28;20495;-73
2022/07/01 12:50:46;;;;;;;0.70;0.50;;;20.80;66.60;;;;;;5075005;28;20461;-72
2022/07/01 12:53:18;;;;;;;0.77;0.53;;;20.70;67.40;;;;;;5074930;28;20456;-72
2022/07/01 12:55:46;;;;;;;0.70;0.60;;;20.90;69.00;;;;;;5074691;28;20487;-73
2022/07/01 12:58:15;;;;;;;0.70;0.60;;;21.10;68.50;;;;;;5074744;28;20453;-73
2022/07/01 13:00:44;;;;;;;0.87;0.50;;;20.80;68.90;;;;;;5074784;28;20481;-73
2022/07/01 13:03:10;;;;;;;0.80;0.73;;;20.70;69.00;;;;;;5073878;28;20446;-73
2022/07/01 13:05:40;;;;;;;0.70;0.60;;;20.70;69.30;;;;;;5074819;28;20503;-73
2022/07/01 13:08:09;;;;;;;0.70;0.50;;;20.80;69.10;;;;;;5074924;28;20445;-73
2022/07/01 13:10:36;;;;;;;0.70;0.50;;;20.20;70.40;;;;;;5074697;28;20453;-73
2022/07/01 13:13:03;;;;;;;0.70;0.60;;;20.00;72.50;;;;;;5074792;28;20449;-73
2022/07/01 13:15:30;;;;;;;0.70;0.60;;;19.90;73.50;;;;;;5074617;28;20453;-71
2022/07/01 13:17:56;;;;;;;0.70;0.60;;;19.70;73.70;;;;;;5074484;28;20446;-71
2022/07/01 13:20:23;;;;;;;0.70;0.60;;;19.80;72.00;;;;;;5074234;28;20477;-70
2022/07/01 13:22:52;;;;;;;0.67;0.50;;;19.70;72.60;;;;;;5074328;28;20449;-70
2022/07/01 13:25:18;;;;;;;0.70;0.57;;;20.00;73.70;;;;;;5074379;28;20928;-71
2022/07/01 13:27:45;;;;;;;0.70;0.50;;;20.40;73.20;;;;;;5074339;28;20446;-71
2022/07/01 13:30:13;;;;;;;0.70;0.60;;;20.60;72.70;;;;;;5074207;28;20446;-72
2022/07/01 13:32:40;;;;;;;0.70;0.50;;;20.70;69.70;;;;;;5074031;28;20530;-71
2022/07/01 13:35:08;;;;;;;0.70;0.50;;;20.70;70.80;;;;;;5073764;28;20449;-71
2022/07/01 13:37:35;;;;;;;0.70;0.50;;;21.00;69.30;;;;;;5074107;28;20441;-71
2022/07/01 13:40:04;;;;;;;0.70;0.50;;;20.60;69.70;;;;;;5073561;28;20493;-71
2022/07/01 13:42:31;;;;;;;0.70;0.50;;;20.30;72.70;;;;;;5073921;28;20469;-71
2022/07/01 13:44:58;;;;;;;0.70;0.50;;;20.70;70.80;;;;;;5073649;28;20932;-71
2022/07/01 13:47:24;;;;;;;0.70;0.50;;;21.10;70.90;;;;;;5073909;28;20453;-70
2022/07/01 13:49:51;;;;;;;0.70;0.50;;;21.50;71.10;;;;;;5073838;28;20488;-72
2022/07/01 13:52:18;;;;;;;0.70;0.50;;;21.50;68.50;;;;;;5073777;28;20519;-71
2022/07/01 13:54:45;;;;;;;0.60;0.50;;;21.50;68.60;;;;;;5073724;28;20536;-71
2022/07/01 13:57:13;;;;;;;0.70;0.50;;;21.60;69.00;;;;;;5073816;28;20445;-72
2022/07/01 13:59:40;;;;;;;0.70;0.53;;;21.60;68.40;;;;;;5073684;28;20595;-72
2022/07/01 14:02:07;;;;;;;0.70;0.50;;;21.30;69.40;;;;;;5073630;28;20556;-71
2022/07/01 14:04:33;;;;;;;0.70;0.50;;;21.00;70.90;;;;;;5073697;28;20449;-71
2022/07/01 14:07:00;;;;;;;0.70;0.50;;;20.80;72.00;;;;;;5073670;28;20449;-71
2022/07/01 14:09:26;;;;;;;0.70;0.50;;;20.70;72.90;;;;;;5073894;28;20446;-70
2022/07/01 14:11:53;;;;;;;1.00;0.60;;;20.40;72.30;;;;;;5073504;28;20514;-70
2022/07/01 14:14:21;;;;;;;0.70;0.60;;;20.20;73.30;;;;;;5073116;28;20834;-72
2022/07/01 14:16:48;;;;;;;0.70;0.60;;;20.10;73.60;;;;;;5073324;28;20802;-72
2022/07/01 14:19:15;;;;;;;0.70;0.50;;;19.80;74.40;;;;;;5073656;28;20450;-73
2022/07/01 14:21:41;;;;;;;0.70;0.50;;;19.60;75.40;;;;;;5073552;28;20469;-73
2022/07/01 14:24:08;;;;;;;0.70;0.50;;;19.70;74.00;;;;;;5073618;28;20793;-72
2022/07/01 14:26:35;;;;;;;0.70;0.50;;;19.60;74.80;;;;;;5073460;28;20449;-73
2022/07/01 14:29:02;;;;;;;0.70;0.50;;;19.60;75.90;;;;;;5073634;28;20822;-73
2022/07/01 14:31:30;;;;;;;0.70;0.53;;;19.70;75.50;;;;;;5073465;28;20484;-73
2022/07/01 14:33:56;;;;;;;1.53;0.50;;;19.90;74.90;;;;;;5073477;28;20457;-73
2022/07/01 14:36:23;;;;;;;0.70;0.60;;;20.30;75.30;;;;;;5073486;28;20498;-73
2022/07/01 14:38:50;;;;;;;0.70;0.60;;;20.70;73.20;;;;;;5073307;28;20586;-73
2022/07/01 14:41:16;;;;;;;0.70;0.50;;;21.20;72.80;;;;;;5073338;28;20492;-73
2022/07/01 14:43:44;;;;;;;0.70;0.50;;;21.40;70.90;;;;;;5073298;28;20453;-73
2022/07/01 14:46:13;;;;;;;0.80;0.57;;;21.00;69.10;;;;;;5073296;28;20453;-72
2022/07/01 14:48:41;;;;;;;0.70;0.60;;;20.80;72.40;;;;;;5073991;28;20536;-73
2022/07/01 14:51:08;;;;;;;0.70;0.50;;;20.40;72.90;;;;;;5073193;28;20465;-72
2022/07/01 14:53:35;;;;;;;0.70;0.50;;;20.10;72.40;;;;;;5073174;28;20490;-73
2022/07/01 14:56:02;;;;;;;0.60;0.50;;;19.80;73.20;;;;;;5073948;28;20491;-72
2022/07/01 14:58:29;;;;;;;0.70;0.50;;;20.20;73.20;;;;;;5073221;28;20503;-72
2022/07/01 15:00:55;;;;;;;0.77;0.57;;;20.10;73.00;;;;;;5072918;28;20572;-72
2022/07/01 15:03:22;;;;;;;0.70;0.60;;;20.40;71.70;;;;;;5073032;28;20445;-71
2022/07/01 15:05:50;;;;;;;0.70;0.50;;;20.40;71.70;;;;;;5073099;28;20450;-72
2022/07/01 15:08:17;;;;;;;0.70;0.50;;;20.70;70.70;;;;;;5072807;28;20868;-71
2022/07/01 15:10:43;;;;;;;0.70;0.50;;;20.80;70.50;;;;;;5073006;28;20469;-71
2022/07/01 15:13:10;;;;;;;0.83;0.50;;;20.80;69.80;;;;;;5073043;28;20452;-72
2022/07/01 15:15:38;;;;;;;0.70;0.50;;;21.00;69.80;;;;;;5074478;28;20449;-72
2022/07/01 15:18:05;;;;;;;0.70;0.50;;;20.90;70.40;;;;;;5072983;28;20453;-72
2022/07/01 15:20:31;;;;;;;0.70;0.50;;;20.80;69.70;;;;;;5072719;28;20484;-73
2022/07/01 15:23:00;;;;;;;0.80;0.50;;;20.90;70.30;;;;;;5072922;28;20503;-72
2022/07/01 15:25:26;;;;;;;0.87;0.57;;;21.00;69.80;;;;;;5073565;28;20458;-73
2022/07/01 15:27:53;;;;;;;0.70;0.50;;;20.80;68.80;;;;;;5076484;28;20936;-72
2022/07/01 15:30:20;;;;;;;0.70;0.50;;;21.00;70.30;;;;;;5076711;28;20529;-72
2022/07/01 15:32:47;;;;;;;0.70;0.50;;;21.10;69.10;;;;;;5076531;28;20483;-73
2022/07/01 15:35:13;;;;;;;0.70;0.50;;;21.10;67.50;;;;;;5076605;28;20449;-72
2022/07/01 15:37:40;;;;;;;0.70;0.50;;;20.90;68.30;;;;;;5076605;28;20530;-71
2022/07/01 15:40:09;;;;;;;0.80;0.53;;;21.00;68.90;;;;;;5076034;28;20485;-72
2022/07/01 15:42:36;;;;;;;0.70;0.50;;;20.80;69.20;;;;;;5079189;28;20495;-73
2022/07/01 15:45:04;;;;;;;0.70;0.50;;;20.80;68.50;;;;;;5076926;28;20452;-72
2022/07/01 15:50:15;;;;;;;0.70;0.50;;;20.60;69.30;;;;;;5077301;28;20771;-72
2022/07/01 15:52:45;;;;;;;0.70;0.50;;;20.80;69.20;;;;;;5076345;28;20469;-73
2022/07/01 15:55:13;;;;;;;0.67;0.50;;;21.30;69.40;;;;;;5076467;28;20453;-72
2022/07/01 15:57:40;;;;;;;0.70;0.50;;;21.10;67.50;;;;;;5076722;28;20441;-72
2022/07/01 16:00:08;;;;;;;0.70;0.50;;;21.10;67.30;;;;;;5076796;28;20481;-72
2022/07/01 16:02:36;;;;;;;0.70;0.50;;;21.10;67.70;;;;;;5077113;28;20526;-72
2022/07/01 16:05:03;;;;;;;0.70;0.50;;;21.20;67.90;;;;;;5076275;28;20855;-72
2022/07/01 16:07:31;;;;;;;0.70;0.50;;;21.20;67.90;;;;;;5076248;28;20445;-73
2022/07/01 16:10:02;;;;;;;0.70;0.53;;;21.20;67.70;;;;;;5076049;28;20499;-72
2022/07/01 16:12:31;;;;;;;0.80;0.60;;;21.20;66.80;;;;;;5076568;28;20472;-72
2022/07/01 16:15:00;;;;;;;0.70;0.60;;;21.30;66.20;;;;;;5075982;28;20848;-72
2022/07/01 16:17:29;;;;;;;0.80;0.50;;;21.20;66.30;;;;;;5075949;28;20441;-72
2022/07/01 16:19:57;;;;;;;0.70;0.50;;;21.00;66.30;;;;;;5075670;28;20449;-72